E38

Alpine-Casparis Municipal Airport

Alpine, Texas, USA
METAR KE38 240435Z AUTO 32005KT 10SM OVC017 12/12 A3014 RMK AO2 T01200118
Observed Flight Rules
Oct-24 @ 04:35 UTC (28 minutes ago) Marginal Visual Flight Rules
Wind Visibility Clouds
320° at 5 knots 10 miles
  • Overcast at 1,700' AGL
Temperatures Readings
Current 12°C / 54°F
Dewpoint 12°C / 54°F
Humidity 100%
Altimeter 30.14" Hg
Pressure 1021 hPa
Elevation 1376
METAR KE38 240435Z AUTO 32005KT 10SM OVC017 12/12 A3014 RMK AO2 T01200118
Observed Flight Rules
Oct-24 @ 04:35 UTC
(28 minutes ago)
MVFR
Wind Visibility
320° at 5 knots 10 miles
Clouds
  • Overcast at 1,700' AGL
Temperature Dewpoint
12°C / 54°F 12°C / 54°F
Humidity Altimeter Pressure
100% 30.14" Hg 1021 hPa